Observation data for Seminole on 04/08/2021      Previous  Date  Next       Current Mesonet Observations  Soil Data  Daily Summary Page  Observations in Plain Language
KSM1 080500Z 26006KT 13/M10 A299 RMK A01 T01331104  RH  018%=      5-min Rain = 0
KSM1 080505Z 25006KT 14/M11 A299 RMK A01 T01401114  RH  016%=      5-min Rain = 0
KSM1 080510Z 26005KT 14/M12 A299 RMK A01 T01431115  RH  016%=      5-min Rain = 0
KSM1 080515Z 26006KT 14/M11 A299 RMK A01 T01351109  RH  017%=      5-min Rain = 0
KSM1 080520Z 26005KT 13/M11 A299 RMK A01 T01341109  RH  017%=      5-min Rain = 0
KSM1 080525Z 26006KT 13/M11 A299 RMK A01 T01291111  RH  018%=      5-min Rain = 0
KSM1 080530Z 26007KT 14/M12 A299 RMK A01 T01361116  RH  016%=      5-min Rain = 0
KSM1 080535Z 26007KT 14/M12 A299 RMK A01 T01401116  RH  016%=      5-min Rain = 0
KSM1 080540Z 27007KT 14/M12 A299 RMK A01 T01381115  RH  016%=      5-min Rain = 0
KSM1 080545Z 27006KT 13/M10 A299 RMK A01 T01261103  RH  019%=      5-min Rain = 0
KSM1 080550Z 26007KT 13/M11 A299 RMK A01 T01261108  RH  018%=      5-min Rain = 0
KSM1 080555Z 27006KT 12/M10 A299 RMK A01 T01181099  RH  021%=      5-min Rain = 0
KSM1 080600Z 28006KT 12/M11 A299 RMK A01 T01201105  RH  020%=      5-min Rain = 0
KSM1 080605Z 29005KT 11/M10 A299 RMK A01 T01111095  RH  023%=      5-min Rain = 0
KSM1 080610Z 29005KT 11/M10 A299 RMK A01 T01091102  RH  021%=      5-min Rain = 0
KSM1 080615Z 35004KT 10/M12 A299 RMK A01 T00981116  RH  021%=      5-min Rain = 0
KSM1 080620Z 04006KT 10/M11 A2991 RMK A01 T00951107  RH  023%=      5-min Rain = 0
KSM1 080625Z 03004KT 10/M11 A2991 RMK A01 T01021107  RH  022%=      5-min Rain = 0
KSM1 080630Z 01004KT 10/M11 A2991 RMK A01 T01041109  RH  021%=      5-min Rain = 0
KSM1 080635Z 02005KT 10/M11 A2991 RMK A01 T00951111  RH  022%=      5-min Rain = 0
KSM1 080640Z 04007KT 09/M11 A2991 RMK A01 T00901113  RH  023%=      5-min Rain = 0
KSM1 080645Z 05008KT 09/M11 A2991 RMK A01 T00921110  RH  023%=      5-min Rain = 0
KSM1 080650Z 04007KT 09/M11 A2991 RMK A01 T00931110  RH  023%=      5-min Rain = 0
KSM1 080655Z 04007KT 09/M11 A2991 RMK A01 T00901109  RH  023%=      5-min Rain = 0
KSM1 080700Z 03008KT 10/M11 A2991 RMK A01 T01001114  RH  021%=      5-min Rain = 0
KSM1 080705Z 03007KT 10/M12 A2991 RMK A01 T01031117  RH  020%=      5-min Rain = 0
KSM1 080710Z 02007KT 10/M12 A2991 RMK A01 T01031118  RH  020%=      5-min Rain = 0
KSM1 080715Z 36006KT 10/M11 A2991 RMK A01 T01001113  RH  021%=      5-min Rain = 0
KSM1 080720Z 36006KT 10/M11 A2991 RMK A01 T01021108  RH  021%=      5-min Rain = 0
KSM1 080725Z 00007KT 10/M12 A2991 RMK A01 T00961116  RH  021%=      5-min Rain = 0
KSM1 080730Z 00007KT 09/M12 A2991 RMK A01 T00941117  RH  021%=      5-min Rain = 0
KSM1 080735Z 01007KT 10/M12 A2991 RMK A01 T01011116  RH  020%=      5-min Rain = 0
KSM1 080740Z 02006KT 10/M12 A2991 RMK A01 T01011116  RH  020%=      5-min Rain = 0
KSM1 080745Z 02007KT 10/M12 A2991 RMK A01 T01041115  RH  020%=      5-min Rain = 0
KSM1 080750Z 02007KT 10/M12 A2991 RMK A01 T00971115  RH  021%=      5-min Rain = 0
KSM1 080755Z 02006KT 10/M12 A299 RMK A01 T00961115  RH  021%=      5-min Rain = 0
KSM1 080800Z 02005KT 10/M12 A299 RMK A01 T00971115  RH  021%=      5-min Rain = 0
KSM1 080805Z 01005KT 10/M12 A299 RMK A01 T01021116  RH  020%=      5-min Rain = 0
KSM1 080810Z 02005KT 10/M11 A299 RMK A01 T01011114  RH  021%=      5-min Rain = 0
KSM1 080815Z 05005KT 09/M11 A299 RMK A01 T00921113  RH  022%=      5-min Rain = 0
KSM1 080820Z 07004KT 09/M11 A299 RMK A01 T00891110  RH  023%=      5-min Rain = 0
KSM1 080825Z 07004KT 09/M10 A2989 RMK A01 T00911102  RH  024%=      5-min Rain = 0
KSM1 080830Z 05005KT 10/M09 A299 RMK A01 T00951092  RH  025%=      5-min Rain = 0
KSM1 080835Z 04006KT 10/M09 A299 RMK A01 T00951090  RH  026%=      5-min Rain = 0
KSM1 080840Z 04006KT 09/M09 A299 RMK A01 T00881088  RH  028%=      5-min Rain = 0
KSM1 080845Z 03005KT 09/M09 A299 RMK A01 T00881085  RH  028%=      5-min Rain = 0
KSM1 080850Z 05005KT 09/M09 A299 RMK A01 T00871088  RH  028%=      5-min Rain = 0
KSM1 080855Z 05005KT 09/M09 A299 RMK A01 T00871086  RH  028%=      5-min Rain = 0
KSM1 080900Z 05006KT 09/M08 A299 RMK A01 T00871083  RH  029%=      5-min Rain = 0
KSM1 080905Z 05006KT 09/M08 A299 RMK A01 T00891081  RH  029%=      5-min Rain = 0
KSM1 080910Z 05006KT 09/M08 A299 RMK A01 T00901077  RH  030%=      5-min Rain = 0
KSM1 080915Z 05006KT 09/M08 A299 RMK A01 T00941075  RH  030%=      5-min Rain = 0
KSM1 080920Z 04007KT 09/M08 A2989 RMK A01 T00911077  RH  030%=      5-min Rain = 0
KSM1 080925Z 04007KT 09/M08 A2989 RMK A01 T00851079  RH  031%=      5-min Rain = 0
KSM1 080930Z 03005KT 09/M08 A2989 RMK A01 T00851076  RH  031%=      5-min Rain = 0
KSM1 080935Z 03005KT 09/M07 A2989 RMK A01 T00881074  RH  031%=      5-min Rain = 0
KSM1 080940Z 03006KT 09/M07 A2989 RMK A01 T00861073  RH  032%=      5-min Rain = 0
KSM1 080945Z 02006KT 08/M08 A2989 RMK A01 T00821075  RH  032%=      5-min Rain = 0
KSM1 080950Z 00005KT 08/M07 A2988 RMK A01 T00831074  RH  032%=      5-min Rain = 0
KSM1 080955Z 01004KT 08/M07 A2988 RMK A01 T00841072  RH  032%=      5-min Rain = 0
KSM1 081000Z 00004KT 08/M07 A2988 RMK A01 T00821070  RH  033%=      5-min Rain = 0
KSM1 081005Z 35003KT 08/M07 A2988 RMK A01 T00771074  RH  033%=      5-min Rain = 0
KSM1 081010Z 00003KT 08/M07 A2988 RMK A01 T00751072  RH  034%=      5-min Rain = 0
KSM1 081015Z 35003KT 07/M07 A2988 RMK A01 T00741071  RH  035%=      5-min Rain = 0
KSM1 081020Z 33004KT 07/M07 A2988 RMK A01 T00731074  RH  034%=      5-min Rain = 0
KSM1 081025Z 32003KT 08/M07 A2988 RMK A01 T00751073  RH  034%=      5-min Rain = 0
KSM1 081030Z 33004KT 07/M07 A2988 RMK A01 T00711074  RH  035%=      5-min Rain = 0
KSM1 081035Z 33005KT 07/M07 A2988 RMK A01 T00691074  RH  035%=      5-min Rain = 0
KSM1 081040Z 34004KT 07/M08 A2988 RMK A01 T00671076  RH  035%=      5-min Rain = 0
KSM1 081045Z 00005KT 07/M08 A2988 RMK A01 T00671076  RH  035%=      5-min Rain = 0
KSM1 081050Z 03008KT 06/M08 A2989 RMK A01 T00591084  RH  035%=      5-min Rain = 0
KSM1 081055Z 03005KT 06/M08 A2988 RMK A01 T00621077  RH  036%=      5-min Rain = 0
KSM1 081100Z 02003KT 08/M07 A2988 RMK A01 T00751072  RH  035%=      5-min Rain = 0
KSM1 081105Z 01003KT 09/M07 A2988 RMK A01 T00851070  RH  033%=      5-min Rain = 0
KSM1 081110Z 04006KT 08/M07 A2989 RMK A01 T00831070  RH  033%=      5-min Rain = 0
KSM1 081115Z 01005KT 08/M07 A2988 RMK A01 T00811070  RH  034%=      5-min Rain = 0
KSM1 081120Z 00006KT 08/M07 A2988 RMK A01 T00791071  RH  034%=      5-min Rain = 0
KSM1 081125Z 01005KT 07/M07 A2988 RMK A01 T00731073  RH  034%=      5-min Rain = 0
KSM1 081130Z 02004KT 07/M07 A2989 RMK A01 T00691074  RH  035%=      5-min Rain = 0
KSM1 081135Z 01003KT 07/M07 A2989 RMK A01 T00721073  RH  035%=      5-min Rain = 0
KSM1 081140Z 35002KT 07/M07 A2989 RMK A01 T00731071  RH  035%=      5-min Rain = 0
KSM1 081145Z 36003KT 08/M07 A2989 RMK A01 T00751071  RH  035%=      5-min Rain = 0
KSM1 081150Z 01004KT 07/M07 A2989 RMK A01 T00651074  RH  036%=      5-min Rain = 0
KSM1 081155Z 01005KT 06/M07 A2989 RMK A01 T00621072  RH  037%=      5-min Rain = 0
KSM1 081200Z 36005KT 06/M07 A2989 RMK A01 T00641071  RH  037%=      5-min Rain = 0
KSM1 081205Z 34004KT 07/M07 A2989 RMK A01 T00651070  RH  037%=      5-min Rain = 0
KSM1 081210Z 34004KT 06/M07 A2989 RMK A01 T00621071  RH  038%=      5-min Rain = 0
KSM1 081215Z 34004KT 06/M07 A2989 RMK A01 T00591071  RH  039%=      5-min Rain = 0
KSM1 081220Z 32003KT 06/M07 A2989 RMK A01 T00561073  RH  039%=      5-min Rain = 0
KSM1 081225Z 32003KT 05/M07 A2989 RMK A01 T00541073  RH  039%=      5-min Rain = 0
KSM1 081230Z 32004KT 06/M07 A2989 RMK A01 T00561071  RH  040%=      5-min Rain = 0
KSM1 081235Z 31005KT 06/M07 A2989 RMK A01 T00571069  RH  040%=      5-min Rain = 0
KSM1 081240Z 31005KT 06/M07 A2989 RMK A01 T00571066  RH  041%=      5-min Rain = 0
KSM1 081245Z 31005KT 06/M06 A299 RMK A01 T00551063  RH  043%=      5-min Rain = 0
KSM1 081250Z 30005KT 05/M07 A299 RMK A01 T00501065  RH  043%=      5-min Rain = 0
KSM1 081255Z 31005KT 06/M07 A299 RMK A01 T00581069  RH  040%=      5-min Rain = 0
KSM1 081300Z 31006KT 06/M08 A299 RMK A01 T00591076  RH  037%=      5-min Rain = 0
KSM1 081305Z 31006KT 06/M08 A299 RMK A01 T00621082  RH  035%=      5-min Rain = 0
KSM1 081310Z 32005KT 06/M09 A299 RMK A01 T00631088  RH  033%=      5-min Rain = 0
KSM1 081315Z 32005KT 06/M09 A299 RMK A01 T00631089  RH  033%=      5-min Rain = 0
KSM1 081320Z 31006KT 07/M09 A299 RMK A01 T00671087  RH  032%=      5-min Rain = 0
KSM1 081325Z 31005KT 07/M08 A299 RMK A01 T00701084  RH  032%=      5-min Rain = 0
KSM1 081330Z 30004KT 07/M08 A2991 RMK A01 T00721079  RH  033%=      5-min Rain = 0
KSM1 081335Z 30004KT 08/M07 A299 RMK A01 T00761074  RH  034%=      5-min Rain = 0
KSM1 081340Z 30004KT 08/M07 A299 RMK A01 T00841070  RH  033%=      5-min Rain = 0
KSM1 081345Z 31004KT 09/M07 A299 RMK A01 T00931072  RH  031%=      5-min Rain = 0
KSM1 081350Z 31004KT 10/M08 A2991 RMK A01 T01011078  RH  028%=      5-min Rain = 0
KSM1 081355Z 31004KT 11/M09 A2991 RMK A01 T01071085  RH  025%=      5-min Rain = 0
KSM1 081400Z 29005KT 11/M08 A2991 RMK A01 T01131080  RH  025%=      5-min Rain = 0
KSM1 081405Z 31005KT 12/M09 A2991 RMK A01 T01181086  RH  023%=      5-min Rain = 0
KSM1 081410Z 32006KT 13/M09 A2991 RMK A01 T01261093  RH  021%=      5-min Rain = 0
KSM1 081415Z 33008KT 13/M09 A2991 RMK A01 T01261093  RH  021%=      5-min Rain = 0
KSM1 081420Z 34008KT 13/M08 A2992 RMK A01 T01271082  RH  022%=      5-min Rain = 0
KSM1 081425Z 33007KT 13/M07 A2992 RMK A01 T01301074  RH  024%=      5-min Rain = 0
KSM1 081430Z 32006KT 13/M07 A2992 RMK A01 T01321070  RH  024%=      5-min Rain = 0
KSM1 081435Z 32005KT 14/M07 A2992 RMK A01 T01371069  RH  023%=      5-min Rain = 0
KSM1 081440Z 33005KT 14/M07 A2992 RMK A01 T01411069  RH  023%=      5-min Rain = 0
KSM1 081445Z 34005KT 15/M07 A2992 RMK A01 T01461072  RH  022%=      5-min Rain = 0
KSM1 081450Z 35004KT 15/M07 A2992 RMK A01 T01481070  RH  021%=      5-min Rain = 0
KSM1 081455Z 32003KT 15/M07 A2992 RMK A01 T01531067  RH  021%=      5-min Rain = 0
KSM1 081500Z 32003KT 16/M07 A2992 RMK A01 T01551066  RH  021%=      5-min Rain = 0
KSM1 081505Z 30002KT 16/M07 A2992 RMK A01 T01581066  RH  021%=      5-min Rain = 0
KSM1 081510Z 35004KT 16/M06 A2992 RMK A01 T01601064  RH  021%=      5-min Rain = 0
KSM1 081515Z 35003KT 16/M06 A2992 RMK A01 T01611064  RH  021%=      5-min Rain = 0
KSM1 081520Z 35004KT 17/M06 A2992 RMK A01 T01691063  RH  020%=      5-min Rain = 0
KSM1 081525Z 35004KT 17/M07 A2993 RMK A01 T01701068  RH  019%=      5-min Rain = 0
KSM1 081530Z 35005KT 17/M07 A2993 RMK A01 T01721073  RH  018%=      5-min Rain = 0
KSM1 081535Z 01004KT 17/M07 A2993 RMK A01 T01741074  RH  018%=      5-min Rain = 0
KSM1 081540Z 35005KT 18/M08 A2993 RMK A01 T01781075  RH  017%=      5-min Rain = 0
KSM1 081545Z 32004KT 18/M08 A2993 RMK A01 T01791079  RH  016%=      5-min Rain = 0
KSM1 081550Z 31004KT 18/M08 A2993 RMK A01 T01821081  RH  016%=      5-min Rain = 0
KSM1 081555Z 29005KT 19/M09 A2993 RMK A01 T01871087  RH  015%=      5-min Rain = 0
KSM1 081600Z 30006KT 19/M09 A2993 RMK A01 T01871092  RH  014%=      5-min Rain = 0
KSM1 081605Z 29005KT 19/M10 A2992 RMK A01 T01911095  RH  014%=      5-min Rain = 0
KSM1 081610Z 32006KT 20/M10 A2992 RMK A01 T01971099  RH  013%=      5-min Rain = 0
KSM1 081615Z 32005G10KT 20/M10 A2992 RMK A01 T01981104  RH  012%=      5-min Rain = 0
KSM1 081620Z 32006KT 20/M10 A2992 RMK A01 T02021102  RH  012%=      5-min Rain = 0
KSM1 081625Z 31006KT 20/M10 A2992 RMK A01 T02021100  RH  012%=      5-min Rain = 0
KSM1 081630Z 32006KT 20/M10 A2991 RMK A01 T02041096  RH  012%=      5-min Rain = 0
KSM1 081635Z 32006KT 21/M10 A2991 RMK A01 T02061096  RH  012%=      5-min Rain = 0
KSM1 081640Z 32005KT 21/M09 A2991 RMK A01 T02061093  RH  012%=      5-min Rain = 0
KSM1 081645Z 32006KT 21/M09 A2991 RMK A01 T02131091  RH  012%=      5-min Rain = 0
KSM1 081650Z 30006KT 22/M09 A2991 RMK A01 T02181088  RH  012%=      5-min Rain = 0
KSM1 081655Z 29007KT 22/M09 A2991 RMK A01 T02191092  RH  012%=      5-min Rain = 0
KSM1 081700Z 30006KT 23/M09 A2991 RMK A01 T02251090  RH  011%=      5-min Rain = 0
KSM1 081705Z 31007KT 23/M09 A2991 RMK A01 T02301089  RH  011%=      5-min Rain = 0
KSM1 081710Z 31007G12KT 23/M09 A2991 RMK A01 T02311090  RH  011%=      5-min Rain = 0
KSM1 081715Z 30006G11KT 23/M09 A299 RMK A01 T02341093  RH  010%=      5-min Rain = 0
KSM1 081720Z 29007G14KT 24/M09 A299 RMK A01 T02401092  RH  010%=      5-min Rain = 0
KSM1 081725Z 29009G15KT 24/M11 A299 RMK A01 T02411105  RH  009%=      5-min Rain = 0
KSM1 081730Z 30010G15KT 24/M10 A299 RMK A01 T02431101  RH  009%=      5-min Rain = 0
KSM1 081735Z 31007KT 24/M10 A299 RMK A01 T02421102  RH  009%=      5-min Rain = 0
KSM1 081740Z 30009KT 25/M11 A299 RMK A01 T02491105  RH  009%=      5-min Rain = 0
KSM1 081745Z 29009G14KT 25/M10 A2989 RMK A01 T02511104  RH  009%=      5-min Rain = 0
KSM1 081750Z 30009KT 26/M11 A2989 RMK A01 T02561107  RH  008%=      5-min Rain = 0
KSM1 081755Z 29009KT 26/M11 A2989 RMK A01 T02581106  RH  008%=      5-min Rain = 0
KSM1 081800Z 28008KT 26/M10 A2988 RMK A01 T02631099  RH  008%=      5-min Rain = 0
KSM1 081805Z 30007G12KT 26/M10 A2988 RMK A01 T02611104  RH  008%=      5-min Rain = 0
KSM1 081810Z 29009G15KT 26/M10 A2988 RMK A01 T02631101  RH  008%=      5-min Rain = 0
KSM1 081815Z 32006G11KT 27/M11 A2988 RMK A01 T02651105  RH  008%=      5-min Rain = 0
KSM1 081820Z 32007KT 27/M10 A2987 RMK A01 T02681099  RH  008%=      5-min Rain = 0
KSM1 081825Z 31008G13KT 27/M10 A2987 RMK A01 T02691104  RH  008%=      5-min Rain = 0
KSM1 081830Z 29007G12KT 27/M10 A2987 RMK A01 T02741103  RH  008%=      5-min Rain = 0
KSM1 081835Z 27007G14KT 28/M11 A2986 RMK A01 T02781111  RH  007%=      5-min Rain = 0
KSM1 081840Z 28008G15KT 27/M11 A2986 RMK A01 T02741110  RH  007%=      5-min Rain = 0
KSM1 081845Z 30011KT 28/M11 A2986 RMK A01 T02781113  RH  007%=      5-min Rain = 0
KSM1 081850Z 29007KT 28/M12 A2985 RMK A01 T02811117  RH  007%=      5-min Rain = 0
KSM1 081855Z 31012G19KT 28/M12 A2985 RMK A01 T02801119  RH  006%=      5-min Rain = 0
KSM1 081900Z 30009G15KT 28/M12 A2984 RMK A01 T02841118  RH  006%=      5-min Rain = 0
KSM1 081905Z 28010G17KT 29/M11 A2984 RMK A01 T02891112  RH  006%=      5-min Rain = 0
KSM1 081910Z 28011G16KT 29/M12 A2984 RMK A01 T02861115  RH  006%=      5-min Rain = 0
KSM1 081915Z 29010G18KT 29/M11 A2984 RMK A01 T02871114  RH  006%=      5-min Rain = 0
KSM1 081920Z 29009G17KT 28/M12 A2983 RMK A01 T02841116  RH  006%=      5-min Rain = 0
KSM1 081925Z 29009G14KT 29/M12 A2983 RMK A01 T02891115  RH  006%=      5-min Rain = 0
KSM1 081930Z 28010KT 29/M12 A2983 RMK A01 T02861117  RH  006%=      5-min Rain = 0
KSM1 081935Z 30011G19KT 29/M12 A2982 RMK A01 T02871116  RH  006%=      5-min Rain = 0
KSM1 081940Z 29009G21KT 29/M12 A2982 RMK A01 T02881115  RH  006%=      5-min Rain = 0
KSM1 081945Z 26011G20KT 29/M12 A2982 RMK A01 T02941118  RH  006%=      5-min Rain = 0
KSM1 081950Z 27007G15KT 29/M12 A2981 RMK A01 T02941116  RH  006%=      5-min Rain = 0
KSM1 081955Z 26012KT 30/M12 A2981 RMK A01 T02951115  RH  006%=      5-min Rain = 0
KSM1 082000Z 26012G19KT 29/M12 A2981 RMK A01 T02941116  RH  006%=      5-min Rain = 0
KSM1 082005Z 28009KT 30/M11 A2981 RMK A01 T02951112  RH  006%=      5-min Rain = 0
KSM1 082010Z 27010G15KT 30/M11 A298 RMK A01 T02951113  RH  006%=      5-min Rain = 0
KSM1 082015Z 24010G15KT 29/M12 A298 RMK A01 T02941115  RH  006%=      5-min Rain = 0
KSM1 082020Z 26011G17KT 29/M12 A298 RMK A01 T02921115  RH  006%=      5-min Rain = 0
KSM1 082025Z 27009G18KT 29/M11 A298 RMK A01 T02941111  RH  006%=      5-min Rain = 0
KSM1 082030Z 25014G21KT 30/M11 A2979 RMK A01 T02951110  RH  006%=      5-min Rain = 0
KSM1 082035Z 25011KT 29/M11 A2979 RMK A01 T02931112  RH  006%=      5-min Rain = 0
KSM1 082040Z 25009KT 30/M11 A2979 RMK A01 T03001110  RH  006%=      5-min Rain = 0
KSM1 082045Z 26011G19KT 31/M11 A2978 RMK A01 T03051108  RH  006%=      5-min Rain = 0
KSM1 082050Z 27010G16KT 30/M11 A2978 RMK A01 T03041108  RH  006%=      5-min Rain = 0
KSM1 082055Z 25013G21KT 30/M11 A2978 RMK A01 T03021110  RH  006%=      5-min Rain = 0
KSM1 082100Z 26013G20KT 30/M11 A2978 RMK A01 T03001110  RH  006%=      5-min Rain = 0
KSM1 082105Z 26011G17KT 30/M11 A2977 RMK A01 T02991112  RH  006%=      5-min Rain = 0
KSM1 082110Z 24007KT 30/M11 A2977 RMK A01 T03001111  RH  006%=      5-min Rain = 0
KSM1 082115Z 22006KT 30/M11 A2977 RMK A01 T02991110  RH  006%=      5-min Rain = 0
KSM1 082120Z 25005G10KT 30/M11 A2976 RMK A01 T03041107  RH  006%=      5-min Rain = 0
KSM1 082125Z 27008G13KT 30/M11 A2976 RMK A01 T03011109  RH  006%=      5-min Rain = 0
KSM1 082130Z 25010G19KT 30/M10 A2976 RMK A01 T03021104  RH  006%=      5-min Rain = 0
KSM1 082135Z 25012G19KT 31/M10 A2976 RMK A01 T03061102  RH  006%=      5-min Rain = 0
KSM1 082140Z 26012G17KT 31/M10 A2976 RMK A01 T03051104  RH  006%=      5-min Rain = 0
KSM1 082145Z 26008KT 30/M10 A2975 RMK A01 T03031102  RH  007%=      5-min Rain = 0
KSM1 082150Z 22009G14KT 31/M10 A2975 RMK A01 T03071101  RH  006%=      5-min Rain = 0
KSM1 082155Z 23011G17KT 31/M10 A2975 RMK A01 T03051101  RH  007%=      5-min Rain = 0
KSM1 082200Z 25011G16KT 31/M10 A2975 RMK A01 T03101098  RH  006%=      5-min Rain = 0
KSM1 082205Z 26014G19KT 31/M10 A2975 RMK A01 T03071100  RH  006%=      5-min Rain = 0
KSM1 082210Z 26010G16KT 30/M10 A2975 RMK A01 T03011097  RH  007%=      5-min Rain = 0
KSM1 082215Z 28007G12KT 30/M10 A2975 RMK A01 T02961101  RH  007%=      5-min Rain = 0
KSM1 082220Z 28009KT 29/M10 A2975 RMK A01 T02931096  RH  007%=      5-min Rain = 0
KSM1 082225Z 25010KT 29/M10 A2975 RMK A01 T02931102  RH  007%=      5-min Rain = 0
KSM1 082230Z 25008G13KT 30/M10 A2974 RMK A01 T02961103  RH  007%=      5-min Rain = 0
KSM1 082235Z 25012G20KT 30/M10 A2974 RMK A01 T02951102  RH  007%=      5-min Rain = 0
KSM1 082240Z 25010KT 30/M10 A2974 RMK A01 T02961101  RH  007%=      5-min Rain = 0
KSM1 082245Z 25010KT 30/M10 A2975 RMK A01 T02991103  RH  007%=      5-min Rain = 0
KSM1 082250Z 25008KT 30/M10 A2974 RMK A01 T03001101  RH  007%=      5-min Rain = 0
KSM1 082255Z 28007KT 30/M09 A2974 RMK A01 T03021086  RH  007%=      5-min Rain = 0
KSM1 082300Z 29010KT 30/M09 A2973 RMK A01 T03001093  RH  007%=      5-min Rain = 0
KSM1 082305Z 28009KT 30/M09 A2973 RMK A01 T03001092  RH  007%=      5-min Rain = 0
KSM1 082310Z 28009G14KT 30/M09 A2973 RMK A01 T03001092  RH  007%=      5-min Rain = 0
KSM1 082315Z 26010G20KT 30/M10 A2973 RMK A01 T03011097  RH  007%=      5-min Rain = 0
KSM1 082320Z 24010G15KT 30/M10 A2973 RMK A01 T03011104  RH  006%=      5-min Rain = 0
KSM1 082325Z 24011G16KT 30/M11 A2973 RMK A01 T03011105  RH  006%=      5-min Rain = 0
KSM1 082330Z 23010G15KT 30/M11 A2973 RMK A01 T03011107  RH  006%=      5-min Rain = 0
KSM1 082335Z 24011KT 30/M11 A2973 RMK A01 T03011106  RH  006%=      5-min Rain = 0
KSM1 082340Z 26010KT 30/M11 A2973 RMK A01 T02991106  RH  006%=      5-min Rain = 0
KSM1 082345Z 27012KT 30/M11 A2973 RMK A01 T02971108  RH  006%=      5-min Rain = 0
KSM1 082350Z 26011KT 30/M11 A2973 RMK A01 T02951110  RH  006%=      5-min Rain = 0
KSM1 082355Z 25007G12KT 30/M11 A2973 RMK A01 T02971107  RH  006%=      5-min Rain = 0
KSM1 090000Z 26010KT 30/M11 A2972 RMK A01 T02971108  RH  006%=      5-min Rain = 0
KSM1 090005Z 26010G15KT 29/M11 A2972 RMK A01 T02931109  RH  007%=      5-min Rain = 0
KSM1 090010Z 27009G14KT 29/M11 A2972 RMK A01 T02891111  RH  007%=      5-min Rain = 0
KSM1 090015Z 26008KT 29/M11 A2972 RMK A01 T02871111  RH  007%=      5-min Rain = 0
KSM1 090020Z 26006KT 29/M11 A2972 RMK A01 T02871109  RH  007%=      5-min Rain = 0
KSM1 090025Z 25006KT 29/M11 A2971 RMK A01 T02881106  RH  007%=      5-min Rain = 0
KSM1 090030Z 24005KT 29/M10 A2971 RMK A01 T02871103  RH  007%=      5-min Rain = 0
KSM1 090035Z 24004KT 28/M11 A2971 RMK A01 T02831107  RH  007%=      5-min Rain = 0
KSM1 090040Z 23004KT 28/M11 A2971 RMK A01 T02791109  RH  007%=      5-min Rain = 0
KSM1 090045Z 21004KT 28/M11 A297 RMK A01 T02771108  RH  007%=      5-min Rain = 0
KSM1 090050Z 21003KT 28/M11 A297 RMK A01 T02771105  RH  007%=      5-min Rain = 0
KSM1 090055Z 22004KT 28/M11 A297 RMK A01 T02751106  RH  007%=      5-min Rain = 0
KSM1 090100Z 23003KT 27/M11 A297 RMK A01 T02721106  RH  008%=      5-min Rain = 0
KSM1 090105Z 22003KT 27/M11 A297 RMK A01 T02721107  RH  007%=      5-min Rain = 0
KSM1 090110Z 20002KT 27/M11 A297 RMK A01 T02701107  RH  008%=      5-min Rain = 0
KSM1 090115Z 17003KT 26/M10 A297 RMK A01 T02631104  RH  008%=      5-min Rain = 0
KSM1 090120Z 18004KT 25/M10 A297 RMK A01 T02531101  RH  009%=      5-min Rain = 0
KSM1 090125Z 15005KT 24/M07 A297 RMK A01 T02391073  RH  012%=      5-min Rain = 0
KSM1 090130Z 16005KT 23/M06 A297 RMK A01 T02281058  RH  014%=      5-min Rain = 0
KSM1 090135Z 16006KT 22/M06 A297 RMK A01 T02221060  RH  015%=      5-min Rain = 0
KSM1 090140Z 16006KT 22/M05 A297 RMK A01 T02151048  RH  017%=      5-min Rain = 0
KSM1 090145Z 16005KT 21/M05 A297 RMK A01 T02101052  RH  017%=      5-min Rain = 0
KSM1 090150Z 16005KT 21/M07 A297 RMK A01 T02111065  RH  015%=      5-min Rain = 0
KSM1 090155Z 16004KT 21/M06 A297 RMK A01 T02111063  RH  015%=      5-min Rain = 0
KSM1 090200Z 16005KT 20/M06 A297 RMK A01 T02031058  RH  017%=      5-min Rain = 0
KSM1 090205Z 16005KT 20/M07 A297 RMK A01 T02021065  RH  016%=      5-min Rain = 0
KSM1 090210Z 16005KT 20/M07 A2969 RMK A01 T01991070  RH  016%=      5-min Rain = 0
KSM1 090215Z 16005KT 20/M07 A2969 RMK A01 T02001071  RH  015%=      5-min Rain = 0
KSM1 090220Z 17005KT 20/M07 A297 RMK A01 T02001067  RH  016%=      5-min Rain = 0
KSM1 090225Z 17006KT 20/M06 A297 RMK A01 T01981061  RH  017%=      5-min Rain = 0
KSM1 090230Z 17007KT 20/M07 A297 RMK A01 T01951067  RH  016%=      5-min Rain = 0
KSM1 090235Z 16009KT 19/M07 A297 RMK A01 T01911071  RH  016%=      5-min Rain = 0
KSM1 090240Z 16009KT 19/M09 A297 RMK A01 T01901087  RH  014%=      5-min Rain = 0
KSM1 090245Z 17010KT 19/M10 A297 RMK A01 T01861096  RH  014%=      5-min Rain = 0
KSM1 090250Z 17011KT 21/M11 A297 RMK A01 T02071105  RH  011%=      5-min Rain = 0
KSM1 090255Z 18008KT 21/M11 A297 RMK A01 T02091106  RH  011%=      5-min Rain = 0
KSM1 090300Z 18008KT 21/M11 A297 RMK A01 T02091109  RH  011%=      5-min Rain = 0
KSM1 090305Z 19007KT 21/M11 A297 RMK A01 T02101112  RH  010%=      5-min Rain = 0
KSM1 090310Z 18008KT 21/M12 A297 RMK A01 T02131116  RH  010%=      5-min Rain = 0
KSM1 090315Z 18008KT 22/M12 A297 RMK A01 T02151115  RH  010%=      5-min Rain = 0
KSM1 090320Z 19009KT 21/M11 A297 RMK A01 T02131114  RH  010%=      5-min Rain = 0
KSM1 090325Z 19008KT 22/M11 A297 RMK A01 T02161112  RH  010%=      5-min Rain = 0
KSM1 090330Z 19007KT 21/M11 A297 RMK A01 T02071112  RH  011%=      5-min Rain = 0
KSM1 090335Z 19007KT 20/M11 A297 RMK A01 T02001111  RH  011%=      5-min Rain = 0
KSM1 090340Z 18006KT 19/M11 A297 RMK A01 T01901110  RH  012%=      5-min Rain = 0
KSM1 090345Z 18006KT 19/M11 A297 RMK A01 T01861108  RH  013%=      5-min Rain = 0
KSM1 090350Z 20006KT 18/M11 A297 RMK A01 T01821106  RH  013%=      5-min Rain = 0
KSM1 090355Z 21005KT 18/M10 A2969 RMK A01 T01841103  RH  013%=      5-min Rain = 0
KSM1 090400Z 21005KT 20/M10 A2969 RMK A01 T01981095  RH  013%=      5-min Rain = 0
KSM1 090405Z 22006KT 20/M09 A2969 RMK A01 T02031094  RH  013%=      5-min Rain = 0
KSM1 090410Z 22007KT 21/M09 A2969 RMK A01 T02061094  RH  012%=      5-min Rain = 0
KSM1 090415Z 23008KT 21/M09 A2969 RMK A01 T02101092  RH  012%=      5-min Rain = 0
KSM1 090420Z 22008G13KT 21/M09 A2969 RMK A01 T02111091  RH  012%=      5-min Rain = 0
KSM1 090425Z 21009KT 21/M09 A2969 RMK A01 T02091090  RH  013%=      5-min Rain = 0
KSM1 090430Z 22008KT 21/M09 A2969 RMK A01 T02061091  RH  013%=      5-min Rain = 0
KSM1 090435Z 22007KT 20/M09 A2968 RMK A01 T02041091  RH  013%=      5-min Rain = 0
KSM1 090440Z 23008KT 20/M09 A2968 RMK A01 T02011090  RH  013%=      5-min Rain = 0
KSM1 090445Z 22008KT 20/M09 A2968 RMK A01 T02031089  RH  013%=      5-min Rain = 0
KSM1 090450Z 21007KT 20/M09 A2968 RMK A01 T02001088  RH  013%=      5-min Rain = 0
KSM1 090455Z 21008KT 20/M09 A2967 RMK A01 T01991089  RH  013%=      5-min Rain = 0

Page generated in 0.0082 seconds.